Time;durP1;ratioP1;P1;durP2;ratioP2;P2;SDS_P1;SDS_P2;PMS_P1;PMS_P2;Temp;Humidity;BMP_temperature;BMP_pressure;BME280_temperature;BME280_humidity;BME280_pressure;Samples;Min_cycle;Max_cycle;Signal;HPM_P1;HPM_P2
2023/09/05 00:00:19;;;;;;;8.30;5.40;;;;;;;10.84;93.61;99002.73;107033;1277;23131;-77
2023/09/05 00:03:08;;;;;;;5.80;5.00;;;;;;;10.87;93.57;98998.32;106701;1277;23876;-79
2023/09/05 00:05:36;;;;;;;9.00;5.00;;;;;;;10.87;94.39;98998.32;107056;1277;22538;-78
2023/09/05 00:08:04;;;;;;;8.10;5.00;;;;;;;10.81;96.18;98997.80;106973;1259;23006;-78
2023/09/05 00:10:32;;;;;;;9.80;5.50;;;;;;;10.71;95.96;98998.14;106986;1277;22542;-78
2023/09/05 00:13:05;;;;;;;7.30;5.00;;;;;;;10.65;95.51;98999.06;106810;1278;22529;-78
2023/09/05 00:15:33;;;;;;;6.70;5.70;;;;;;;10.66;96.03;98995.18;107017;1262;24256;-79
2023/09/05 00:18:01;;;;;;;9.50;7.20;;;;;;;10.69;96.10;98991.50;107024;1277;22673;-79
2023/09/05 00:20:29;;;;;;;8.20;5.50;;;;;;;10.71;95.90;98992.85;106994;1277;25375;-79
2023/09/05 00:22:57;;;;;;;8.50;6.20;;;;;;;10.69;96.11;98991.02;106738;1275;23623;-79
2023/09/05 00:25:25;;;;;;;7.30;5.30;;;;;;;10.64;95.81;98997.44;106981;1277;25443;-79
2023/09/05 00:27:53;;;;;;;9.70;5.90;;;;;;;10.64;95.87;98992.27;106737;1278;168940;-79
2023/09/05 00:30:22;;;;;;;9.90;5.90;;;;;;;10.63;95.95;98985.70;106744;1278;24276;-78
2023/09/05 00:32:50;;;;;;;8.10;6.00;;;;;;;10.62;95.92;98985.86;106992;1277;22542;-78
2023/09/05 00:35:18;;;;;;;7.70;6.50;;;;;;;10.64;95.86;98990.60;107004;1278;24279;-79
2023/09/05 00:37:47;;;;;;;8.50;6.20;;;;;;;10.67;95.88;98992.63;106782;1262;24622;-79
2023/09/05 00:40:15;;;;;;;9.70;6.10;;;;;;;10.68;95.63;98989.69;107055;1277;23896;-78
2023/09/05 00:42:43;;;;;;;8.80;6.60;;;;;;;10.70;96.00;98994.41;106671;1267;22534;-80
2023/09/05 00:45:11;;;;;;;10.20;7.00;;;;;;;10.73;95.97;98994.14;107050;1277;26621;-80
2023/09/05 00:47:39;;;;;;;10.20;6.80;;;;;;;10.73;96.09;98995.54;107062;1277;22476;-79
2023/09/05 00:50:10;;;;;;;9.40;7.20;;;;;;;10.71;96.12;98997.64;106911;1277;23360;-79
2023/09/05 00:52:38;;;;;;;7.50;6.20;;;;;;;10.66;96.83;98999.27;107113;1278;25411;-79
2023/09/05 00:55:07;;;;;;;7.40;5.80;;;;;;;10.58;97.62;98997.78;106927;1277;22648;-79
2023/09/05 00:57:36;;;;;;;6.80;5.90;;;;;;;10.48;97.81;98997.52;107086;1277;22535;-77
2023/09/05 01:00:11;;;;;;;10.40;6.00;;;;;;;10.40;98.31;98994.94;106694;1277;23539;-79
2023/09/05 01:02:41;;;;;;;8.50;6.80;;;;;;;10.34;98.17;98989.88;106911;1275;22480;-78
2023/09/05 01:05:10;;;;;;;10.70;7.30;;;;;;;10.34;98.18;98991.06;106979;1277;24235;-79
2023/09/05 01:08:03;;;;;;;9.10;7.20;;;;;;;10.31;97.80;98991.17;107080;1277;22653;-79
2023/09/05 01:10:45;;;;;;;10.70;6.60;;;;;;;10.32;97.90;98990.25;106866;1277;22532;-79
2023/09/05 01:13:31;;;;;;;8.80;6.10;;;;;;;10.35;97.74;98989.08;107035;1277;25331;-78
2023/09/05 01:15:59;;;;;;;7.90;6.00;;;;;;;10.37;97.84;98986.48;106988;1277;22598;-79
2023/09/05 01:18:34;;;;;;;9.10;6.30;;;;;;;10.31;99.17;98983.25;107044;1277;26616;-79
2023/09/05 01:21:32;;;;;;;8.30;6.40;;;;;;;10.21;99.76;98985.75;106916;1277;25404;-78
2023/09/05 01:24:21;;;;;;;9.90;6.40;;;;;;;10.06;99.89;98983.54;106813;1277;24273;-79
2023/09/05 01:26:51;;;;;;;7.90;5.70;;;;;;;9.94;99.94;98982.06;106598;1277;22623;-78
2023/09/05 01:29:30;;;;;;;7.20;6.30;;;;;;;9.86;100.00;98980.55;106533;1277;24091;-78
2023/09/05 01:31:59;;;;;;;8.90;5.10;;;;;;;9.81;100.00;98979.21;107078;1278;22644;-78
2023/09/05 01:34:27;;;;;;;6.50;5.50;;;;;;;9.73;100.00;98976.39;106738;1278;25297;-79
2023/09/05 01:36:56;;;;;;;10.10;5.90;;;;;;;9.77;100.00;98978.60;107029;1277;24340;-78
2023/09/05 01:39:24;;;;;;;9.10;5.60;;;;;;;9.82;100.00;98979.47;106761;1277;24281;-78
2023/09/05 01:41:53;;;;;;;7.70;5.70;;;;;;;9.91;100.00;98977.88;107076;1277;22538;-79
2023/09/05 01:44:21;;;;;;;8.10;5.20;;;;;;;9.98;100.00;98979.28;107022;1278;24594;-78
2023/09/05 01:46:49;;;;;;;9.20;5.20;;;;;;;10.04;100.00;98982.56;106976;1277;22651;-78
2023/09/05 01:49:17;;;;;;;7.70;4.90;;;;;;;10.10;100.00;98982.58;106647;1277;22646;-79
2023/09/05 01:51:45;;;;;;;9.30;5.20;;;;;;;10.17;100.00;98974.66;107060;1277;24191;-78
2023/09/05 01:54:13;;;;;;;7.30;5.70;;;;;;;10.21;100.00;98973.26;106720;1277;22642;-79
2023/09/05 01:56:41;;;;;;;7.10;5.70;;;;;;;10.19;100.00;98972.88;106812;1277;22589;-79
2023/09/05 01:59:09;;;;;;;7.30;5.60;;;;;;;10.12;100.00;98967.77;106934;1277;22777;-79
2023/09/05 02:01:37;;;;;;;6.00;5.40;;;;;;;10.08;100.00;98970.12;107073;1277;22651;-79
2023/09/05 02:04:05;;;;;;;11.10;6.50;;;;;;;10.09;100.00;98969.21;107045;1277;25694;-79
2023/09/05 02:06:34;;;;;;;8.00;6.50;;;;;;;10.11;100.00;98962.27;107089;1278;24247;-79
2023/09/05 02:09:02;;;;;;;9.00;6.00;;;;;;;10.20;100.00;98963.95;107006;1278;25284;-79
2023/09/05 02:11:31;;;;;;;8.30;6.50;;;;;;;10.31;100.00;98963.90;106736;1259;22657;-78
2023/09/05 02:13:59;;;;;;;9.30;6.60;;;;;;;10.40;100.00;98961.85;106909;1277;22907;-78
2023/09/05 02:16:27;;;;;;;7.90;6.30;;;;;;;10.47;100.00;98955.91;106731;1277;22650;-79
2023/09/05 02:18:56;;;;;;;7.30;6.20;;;;;;;10.56;100.00;98957.30;106976;1277;22567;-79
2023/09/05 02:21:24;;;;;;;8.30;6.40;;;;;;;10.58;100.00;98953.79;106865;1278;24355;-77
2023/09/05 02:23:52;;;;;;;9.10;6.80;;;;;;;10.59;100.00;98953.79;106752;1278;24405;-80
2023/09/05 02:26:20;;;;;;;9.90;6.30;;;;;;;10.65;100.00;98952.38;107084;1277;25467;-78
2023/09/05 02:28:48;;;;;;;7.50;6.00;;;;;;;10.74;100.00;98956.08;106859;1277;22593;-78
2023/09/05 02:31:17;;;;;;;8.90;6.60;;;;;;;10.82;100.00;98960.25;106671;1277;22531;-78
2023/09/05 02:33:45;;;;;;;8.70;6.60;;;;;;;10.94;100.00;98958.44;106743;1265;22583;-78
2023/09/05 02:36:17;;;;;;;8.90;6.10;;;;;;;11.03;100.00;98957.86;106853;1277;24444;-78
2023/09/05 02:38:46;;;;;;;7.90;6.10;;;;;;;11.10;100.00;98956.29;106635;1277;25477;-79
2023/09/05 02:41:16;;;;;;;9.10;6.50;;;;;;;11.19;100.00;98952.68;106941;1277;22517;-79
2023/09/05 02:43:46;;;;;;;8.20;5.90;;;;;;;11.23;100.00;98948.84;106909;1277;22523;-79
2023/09/05 02:46:14;;;;;;;8.90;5.90;;;;;;;11.28;100.00;98943.46;106910;1278;22646;-79
2023/09/05 02:48:43;;;;;;;7.80;6.30;;;;;;;11.31;100.00;98944.37;106767;1277;24356;-79
2023/09/05 02:51:11;;;;;;;10.40;6.00;;;;;;;11.32;100.00;98939.04;106911;1278;23176;-78
2023/09/05 02:53:40;;;;;;;7.80;6.50;;;;;;;11.36;100.00;98938.95;106649;1277;25298;-79
2023/09/05 02:56:08;;;;;;;8.90;6.20;;;;;;;11.40;100.00;98937.69;106995;1277;22534;-79
2023/09/05 02:58:36;;;;;;;7.50;6.00;;;;;;;11.35;100.00;98940.41;106799;1278;25339;-79
2023/09/05 03:01:10;;;;;;;7.80;6.20;;;;;;;11.23;100.00;98937.13;106926;1278;22534;-79
2023/09/05 03:03:38;;;;;;;11.90;7.90;;;;;;;11.12;100.00;98935.51;106989;1277;22557;-79
2023/09/05 03:06:12;;;;;;;11.30;8.70;;;;;;;11.02;100.00;98936.40;106781;1271;22525;-78
2023/09/05 03:08:45;;;;;;;;;;;;;;;10.96;100.00;98943.17;107069;1277;22559;-79
2023/09/05 03:11:19;;;;;;;9.90;7.70;;;;;;;10.88;100.00;98948.42;107071;1278;25417;-79
2023/09/05 03:13:48;;;;;;;11.90;8.20;;;;;;;10.82;100.00;98951.90;106826;1277;22858;-78
2023/09/05 03:16:17;;;;;;;11.40;8.20;;;;;;;10.78;100.00;98948.51;106916;1277;24212;-79
2023/09/05 03:18:48;;;;;;;11.30;8.70;;;;;;;10.73;100.00;98950.30;106896;1277;25432;-79
2023/09/05 03:21:17;;;;;;;9.40;8.10;;;;;;;10.68;100.00;98953.06;106738;1278;22733;-78
2023/09/05 03:23:45;;;;;;;12.80;8.00;;;;;;;10.62;100.00;98951.90;106789;1277;22542;-79
2023/09/05 03:26:13;;;;;;;9.30;7.60;;;;;;;10.58;100.00;98955.14;106873;1278;24127;-78
2023/09/05 03:28:43;;;;;;;9.70;7.20;;;;;;;10.55;100.00;98955.26;106788;1278;22703;-78
2023/09/05 03:31:14;;;;;;;8.90;7.40;;;;;;;10.50;100.00;98953.97;106798;1278;22712;-79
2023/09/05 03:33:42;;;;;;;9.50;7.70;;;;;;;10.42;100.00;98955.75;106635;1277;25368;-79
2023/09/05 03:36:11;;;;;;;10.00;7.00;;;;;;;10.32;100.00;98968.81;106876;1262;24337;-79
2023/09/05 03:38:39;;;;;;;10.20;6.80;;;;;;;10.22;100.00;98972.61;106647;1278;25407;-79
2023/09/05 03:41:08;;;;;;;81.50;74.10;;;;;;;10.18;100.00;98970.23;106920;1278;25430;-78
2023/09/05 03:43:37;;;;;;;14.90;13.30;;;;;;;10.16;100.00;98968.35;106818;1278;24246;-79
2023/09/05 03:46:05;;;;;;;11.70;9.60;;;;;;;10.15;100.00;98969.65;106732;1278;24052;-79
2023/09/05 03:48:33;;;;;;;10.10;9.00;;;;;;;10.10;100.00;98967.60;106777;1278;22533;-79
2023/09/05 03:51:02;;;;;;;14.10;9.30;;;;;;;10.00;100.00;98969.58;106937;1278;22533;-79
2023/09/05 03:53:30;;;;;;;13.80;9.60;;;;;;;9.90;100.00;98967.38;106970;1278;24288;-79
2023/09/05 03:55:58;;;;;;;12.20;9.30;;;;;;;9.88;100.00;98967.53;106780;1278;23012;-80
2023/09/05 03:58:26;;;;;;;11.50;9.00;;;;;;;9.84;100.00;98969.46;106512;1278;22540;-80
2023/09/05 04:00:57;;;;;;;12.00;9.10;;;;;;;9.84;100.00;98974.36;106865;1278;24232;-79
2023/09/05 04:03:27;;;;;;;10.30;9.20;;;;;;;9.85;100.00;98971.77;106825;1278;22527;-78
2023/09/05 04:06:00;;;;;;;10.10;9.00;;;;;;;9.85;100.00;98973.23;106953;1278;22606;-77
2023/09/05 04:08:29;;;;;;;12.60;8.30;;;;;;;9.83;100.00;98968.48;106880;1278;22539;-77
2023/09/05 04:10:59;;;;;;;9.90;8.20;;;;;;;9.79;100.00;98969.02;106645;1278;25471;-78
2023/09/05 04:13:28;;;;;;;14.30;9.80;;;;;;;9.77;100.00;98977.16;106571;1278;25281;-77
2023/09/05 04:16:03;;;;;;;11.40;9.20;;;;;;;9.72;100.00;98977.03;106613;1278;22580;-78
2023/09/05 04:18:33;;;;;;;17.00;15.30;;;;;;;9.67;100.00;98982.30;106655;1278;22560;-78
2023/09/05 04:21:02;;;;;;;10.90;9.10;;;;;;;9.66;100.00;98981.81;106712;1278;25400;-78
2023/09/05 04:23:30;;;;;;;9.80;8.80;;;;;;;9.69;100.00;98977.67;106646;1278;22535;-78
2023/09/05 04:25:59;;;;;;;9.40;8.00;;;;;;;9.73;100.00;98982.15;106477;1278;22765;-78
2023/09/05 04:28:29;;;;;;;10.20;9.00;;;;;;;9.72;100.00;98978.32;107053;1277;22561;-79
2023/09/05 04:31:02;;;;;;;11.40;8.00;;;;;;;9.67;100.00;98980.73;107074;1277;22545;-78
2023/09/05 04:33:32;;;;;;;9.50;8.30;;;;;;;9.62;100.00;98984.93;107171;1278;22524;-78
2023/09/05 04:36:00;;;;;;;14.00;8.90;;;;;;;9.60;100.00;98985.30;107020;1278;25509;-80
2023/09/05 04:38:28;;;;;;;10.30;8.40;;;;;;;9.58;100.00;98984.59;107100;1265;22555;-79
2023/09/05 04:41:01;;;;;;;10.60;7.80;;;;;;;9.59;100.00;98984.59;106884;1278;22701;-79
2023/09/05 04:43:30;;;;;;;9.30;7.40;;;;;;;9.72;100.00;98988.88;106745;1277;22874;-79
2023/09/05 04:45:58;;;;;;;10.60;8.20;;;;;;;9.83;100.00;98992.89;106744;1277;22859;-79
2023/09/05 04:48:26;;;;;;;10.20;7.40;;;;;;;9.87;100.00;98991.86;106874;1277;22570;-79
2023/09/05 04:50:55;;;;;;;9.60;7.10;;;;;;;9.91;100.00;98996.50;106887;1277;22527;-79
2023/09/05 04:53:23;;;;;;;11.20;7.50;;;;;;;9.98;100.00;98999.90;106960;1277;22737;-78
2023/09/05 04:55:52;;;;;;;9.60;7.50;;;;;;;10.08;100.00;99001.38;106667;1277;24411;-79
2023/09/05 04:58:20;;;;;;;9.20;7.00;;;;;;;10.24;100.00;99005.11;106957;1277;25880;-78
2023/09/05 05:00:49;;;;;;;10.10;8.00;;;;;;;10.38;100.00;99001.46;106865;1277;25622;-79
2023/09/05 05:03:17;;;;;;;11.90;8.40;;;;;;;10.52;100.00;99002.69;106958;1277;25399;-79
2023/09/05 05:05:48;;;;;;;11.70;8.50;;;;;;;10.57;100.00;98993.90;106681;1278;25291;-78
2023/09/05 05:08:16;;;;;;;9.60;8.30;;;;;;;10.73;100.00;98998.40;106931;1278;22782;-80
2023/09/05 05:10:44;;;;;;;8.30;7.40;;;;;;;10.87;100.00;98997.13;106979;1278;22543;-79
2023/09/05 05:13:13;;;;;;;11.30;7.20;;;;;;;11.01;100.00;99000.70;106960;1277;22573;-79
2023/09/05 05:15:43;;;;;;;12.70;9.10;;;;;;;11.13;100.00;98997.38;107009;1277;22747;-81
2023/09/05 05:18:11;;;;;;;14.30;9.20;;;;;;;11.25;100.00;98996.52;107062;1277;22523;-78
2023/09/05 05:20:40;;;;;;;15.20;9.30;;;;;;;11.35;100.00;98996.16;107079;1277;25506;-79
2023/09/05 05:23:08;;;;;;;16.30;8.60;;;;;;;11.47;100.00;98992.38;107081;1278;25427;-79
2023/09/05 05:25:37;;;;;;;11.20;9.10;;;;;;;11.60;100.00;98992.15;107111;1277;22541;-80
2023/09/05 05:28:05;;;;;;;10.20;8.50;;;;;;;11.73;100.00;98996.77;106801;1277;23106;-79
2023/09/05 05:30:36;;;;;;;13.50;8.50;;;;;;;11.86;100.00;98999.14;107077;1277;22676;-79
2023/09/05 05:33:04;;;;;;;12.40;8.90;;;;;;;11.97;100.00;98996.27;107086;1277;22532;-80
2023/09/05 05:35:33;;;;;;;13.10;9.10;;;;;;;12.07;100.00;98995.02;107058;1277;25281;-79
2023/09/05 05:38:01;;;;;;;11.40;8.20;;;;;;;12.19;100.00;98996.92;106935;1278;22523;-80
2023/09/05 05:40:29;;;;;;;16.40;8.20;;;;;;;12.33;100.00;98999.51;107014;1278;22535;-80
2023/09/05 05:42:57;;;;;;;11.30;8.00;;;;;;;12.48;100.00;98998.09;107054;1277;22528;-80
2023/09/05 05:45:25;;;;;;;12.60;8.70;;;;;;;12.62;100.00;99000.61;107057;1277;22586;-79
2023/09/05 05:47:55;;;;;;;9.70;7.90;;;;;;;12.75;100.00;99002.66;106723;1277;22531;-80
2023/09/05 05:50:25;;;;;;;10.60;8.60;;;;;;;12.86;100.00;99001.89;106829;1277;23954;-80
2023/09/05 05:52:53;;;;;;;11.10;8.50;;;;;;;12.97;100.00;99001.02;106915;1277;22641;-78
2023/09/05 05:55:21;;;;;;;12.00;8.20;;;;;;;13.11;100.00;99001.23;106650;1278;22616;-79
2023/09/05 05:57:50;;;;;;;10.40;7.90;;;;;;;13.26;100.00;99006.60;107095;1277;24227;-78
2023/09/05 06:00:18;;;;;;;12.10;8.20;;;;;;;13.41;100.00;99008.00;106828;1277;22606;-79
2023/09/05 06:02:46;;;;;;;10.50;7.80;;;;;;;13.58;100.00;99010.71;106642;1277;22800;-79
2023/09/05 06:05:14;;;;;;;16.00;9.20;;;;;;;13.73;100.00;99005.63;107004;1277;22937;-79
2023/09/05 06:07:45;;;;;;;10.90;7.70;;;;;;;13.88;100.00;99010.73;106869;1269;23436;-80
2023/09/05 06:10:13;;;;;;;14.10;8.60;;;;;;;14.04;100.00;99010.06;106760;1277;22660;-79
2023/09/05 06:12:41;;;;;;;13.60;8.40;;;;;;;14.21;100.00;99001.35;106773;1278;22794;-79
2023/09/05 06:15:09;;;;;;;12.60;8.60;;;;;;;14.39;100.00;99003.06;106806;1278;24371;-79
2023/09/05 06:17:37;;;;;;;11.80;8.60;;;;;;;14.58;100.00;99000.33;106650;1278;24388;-79
2023/09/05 06:20:06;;;;;;;11.10;8.50;;;;;;;14.74;100.00;98994.58;107055;1277;23959;-79
2023/09/05 06:22:34;;;;;;;14.90;8.30;;;;;;;14.91;100.00;98995.98;106765;1278;23163;-79
2023/09/05 06:25:05;;;;;;;14.30;8.60;;;;;;;15.11;100.00;99000.88;107093;1277;24238;-80
2023/09/05 06:27:33;;;;;;;15.80;8.40;;;;;;;15.14;100.00;98979.27;106700;1278;22530;-79
2023/09/05 06:30:02;;;;;;;11.00;7.60;;;;;;;15.44;100.00;98998.23;106893;1278;22668;-79
2023/09/05 06:32:30;;;;;;;14.50;9.00;;;;;;;15.59;100.00;98999.62;106966;1277;22630;-79
2023/09/05 06:35:00;;;;;;;10.40;7.90;;;;;;;15.72;100.00;98997.69;107138;1278;25316;-78
2023/09/05 06:37:31;;;;;;;12.30;7.70;;;;;;;15.88;100.00;99003.09;106558;1278;22532;-79
2023/09/05 06:39:59;;;;;;;23.50;7.80;;;;;;;16.06;100.00;99003.87;106634;1278;23886;-78
2023/09/05 06:42:27;;;;;;;13.70;7.60;;;;;;;16.23;100.00;99002.27;106735;1278;25237;-79
2023/09/05 06:44:55;;;;;;;12.00;8.50;;;;;;;16.40;100.00;99000.31;106618;1278;22531;-79
2023/09/05 06:47:23;;;;;;;15.70;9.80;;;;;;;16.54;100.00;98996.53;106512;1278;22718;-78
2023/09/05 06:49:51;;;;;;;14.70;9.00;;;;;;;16.69;100.00;98997.54;106600;1278;22724;-78
2023/09/05 06:52:19;;;;;;;11.30;8.90;;;;;;;16.83;100.00;98992.52;106934;1278;22540;-79
2023/09/05 06:54:48;;;;;;;10.40;9.20;;;;;;;16.97;100.00;98997.86;106983;1278;25279;-79
2023/09/05 06:57:17;;;;;;;11.10;8.80;;;;;;;17.10;100.00;98994.14;106975;1278;25233;-79
2023/09/05 06:59:45;;;;;;;11.20;9.20;;;;;;;17.22;100.00;98991.84;106615;1278;22604;-79
2023/09/05 07:02:13;;;;;;;13.90;9.00;;;;;;;17.33;100.00;98988.33;106510;1278;23007;-79
2023/09/05 07:04:41;;;;;;;10.50;8.30;;;;;;;17.43;100.00;98988.18;106916;1278;25358;-79
2023/09/05 07:07:09;;;;;;;14.60;8.70;;;;;;;17.56;100.00;98988.52;106885;1278;22756;-79
2023/09/05 07:09:37;;;;;;;12.30;9.00;;;;;;;17.68;100.00;98987.94;106909;1278;26692;-79
2023/09/05 07:12:07;;;;;;;10.90;9.20;;;;;;;17.78;100.00;98985.05;106858;1278;22650;-80
2023/09/05 07:14:42;;;;;;;10.00;8.50;;;;;;;17.86;100.00;98989.65;106875;1278;22538;-80
2023/09/05 07:17:12;;;;;;;11.90;9.00;;;;;;;17.97;100.00;98988.89;107208;1278;22517;-78
2023/09/05 07:19:40;;;;;;;11.20;10.10;;;;;;;18.07;100.00;98982.34;107143;1278;22952;-78
2023/09/05 07:22:08;;;;;;;15.30;10.50;;;;;;;18.14;100.00;98981.55;107084;1278;22601;-78
2023/09/05 07:24:36;;;;;;;12.60;9.80;;;;;;;18.22;100.00;98981.37;107190;1278;23041;-79
2023/09/05 07:27:05;;;;;;;15.30;9.80;;;;;;;18.32;99.78;98979.06;106600;1278;23405;-79
2023/09/05 07:29:33;;;;;;;13.20;10.20;;;;;;;18.40;99.85;98980.26;106655;1278;25482;-78
2023/09/05 07:32:01;;;;;;;13.70;10.30;;;;;;;18.50;99.96;98980.32;106649;1278;23359;-79
2023/09/05 07:34:29;;;;;;;13.80;9.50;;;;;;;18.62;98.82;98982.31;106964;1278;22517;-79
2023/09/05 07:36:58;;;;;;;10.80;9.10;;;;;;;18.72;98.70;98987.31;106643;1278;22751;-78
2023/09/05 07:39:26;;;;;;;12.60;9.50;;;;;;;18.81;98.00;98987.81;106957;1278;22650;-78
2023/09/05 07:41:54;;;;;;;13.60;9.10;;;;;;;18.91;97.94;98987.84;106820;1278;22534;-79
2023/09/05 07:44:22;;;;;;;10.00;8.90;;;;;;;18.99;97.12;98984.80;106608;1278;22539;-78
2023/09/05 07:46:50;;;;;;;10.50;9.00;;;;;;;19.04;95.96;98986.47;106578;1278;22651;-79
2023/09/05 07:49:18;;;;;;;11.90;9.20;;;;;;;19.10;96.00;98990.69;106964;1278;24471;-79
2023/09/05 07:51:47;;;;;;;12.70;9.10;;;;;;;19.12;94.25;98989.99;107000;1278;22544;-79
2023/09/05 07:54:17;;;;;;;9.50;8.50;;;;;;;19.16;94.33;98992.43;106972;1278;22535;-78
2023/09/05 07:56:45;;;;;;;12.60;8.20;;;;;;;19.19;93.22;98995.50;107004;1278;22740;-79
2023/09/05 07:59:13;;;;;;;17.50;8.60;;;;;;;19.24;93.19;98993.13;107032;1278;22525;-79
2023/09/05 08:01:41;;;;;;;13.10;7.70;;;;;;;19.29;91.98;98998.58;106966;1278;22570;-79
2023/09/05 08:04:09;;;;;;;10.50;7.10;;;;;;;19.31;89.70;98998.17;106905;1278;22684;-79
2023/09/05 08:06:37;;;;;;;9.10;6.90;;;;;;;19.33;89.51;98994.11;106823;1278;24255;-78
2023/09/05 08:09:05;;;;;;;9.70;7.10;;;;;;;19.37;89.09;98995.98;106658;1278;22640;-78
2023/09/05 08:11:34;;;;;;;8.20;6.80;;;;;;;19.44;89.47;98999.71;106689;1278;22646;-78
2023/09/05 08:14:02;;;;;;;12.80;7.20;;;;;;;19.51;88.09;98992.88;106934;1278;22579;-78
2023/09/05 08:16:30;;;;;;;14.20;7.10;;;;;;;19.55;86.81;98994.41;106992;1278;25237;-78
2023/09/05 08:18:58;;;;;;;9.90;6.70;;;;;;;19.58;87.18;98992.88;106645;1266;23000;-79
2023/09/05 08:21:26;;;;;;;9.50;5.90;;;;;;;19.64;86.36;98992.08;106941;1278;22539;-78
2023/09/05 08:23:54;;;;;;;7.40;6.30;;;;;;;19.72;85.77;98992.61;106900;1278;22520;-79
2023/09/05 08:26:22;;;;;;;10.10;5.90;;;;;;;19.81;85.54;98988.56;106542;1278;24213;-78
2023/09/05 08:28:50;;;;;;;8.60;5.70;;;;;;;19.89;84.34;98991.08;106557;1265;24442;-78
2023/09/05 08:31:20;;;;;;;7.20;5.20;;;;;;;20.00;83.69;98986.87;106765;1255;23000;-79
2023/09/05 08:33:48;;;;;;;8.30;5.40;;;;;;;20.09;83.10;98982.88;107106;1277;22521;-80
2023/09/05 08:36:16;;;;;;;7.20;5.40;;;;;;;20.19;83.46;98980.59;107041;1277;25399;-78
2023/09/05 08:38:44;;;;;;;7.40;5.40;;;;;;;20.33;83.43;98987.26;106816;1278;22650;-79
2023/09/05 08:41:12;;;;;;;6.90;4.60;;;;;;;20.38;81.04;98984.50;106761;1278;23919;-79
2023/09/05 08:43:40;;;;;;;7.20;5.40;;;;;;;20.45;81.23;98985.98;106739;1277;22538;-80
2023/09/05 08:46:10;;;;;;;7.40;4.30;;;;;;;20.48;78.85;98985.15;106768;1278;25265;-79
2023/09/05 08:48:38;;;;;;;6.50;4.40;;;;;;;20.49;78.77;98990.10;106844;1278;23177;-79
2023/09/05 08:51:31;;;;;;;7.30;5.00;;;;;;;20.58;80.31;98987.48;106819;1277;22771;-79
2023/09/05 08:54:04;;;;;;;7.80;4.80;;;;;;;20.70;79.17;98989.23;106795;1278;25580;-79
2023/09/05 08:56:33;;;;;;;5.60;3.70;;;;;;;20.80;78.57;98989.33;106721;1278;22764;-79
2023/09/05 08:59:27;;;;;;;5.30;4.00;;;;;;;20.90;76.95;98985.42;106699;1277;25556;-79
2023/09/05 09:01:55;;;;;;;7.40;3.60;;;;;;;21.01;77.14;98986.89;106770;1277;24153;-79
2023/09/05 09:04:23;;;;;;;13.60;4.40;;;;;;;21.12;76.00;98986.64;106783;1278;25356;-80
2023/09/05 09:06:55;;;;;;;15.20;4.30;;;;;;;21.20;76.03;98979.17;107115;1278;22539;-78
2023/09/05 09:09:39;;;;;;;7.00;3.90;;;;;;;21.34;76.27;98978.72;106808;1277;24252;-78
2023/09/05 09:12:07;;;;;;;7.10;4.40;;;;;;;21.45;74.36;98977.66;107075;1277;22661;-78
2023/09/05 09:14:36;;;;;;;5.70;3.90;;;;;;;21.48;74.29;98972.67;106732;1278;22518;-78
2023/09/05 09:17:05;;;;;;;6.40;3.60;;;;;;;21.59;74.81;98968.78;106571;1278;22877;-78
2023/09/05 09:19:33;;;;;;;4.70;3.60;;;;;;;21.74;74.53;98971.42;106634;1277;23057;-78
2023/09/05 09:22:03;;;;;;;6.10;3.90;;;;;;;21.86;73.26;98968.30;106695;1278;23285;-78
2023/09/05 09:24:36;;;;;;;5.70;3.40;;;;;;;21.98;74.22;98965.99;107004;1278;22771;-78
2023/09/05 09:27:06;;;;;;;5.10;3.80;;;;;;;22.10;71.51;98970.88;107024;1277;23009;-78
2023/09/05 09:29:34;;;;;;;5.70;3.50;;;;;;;22.11;71.42;98967.70;107029;1278;23275;-78
2023/09/05 09:32:05;;;;;;;4.60;3.30;;;;;;;22.14;70.99;98969.19;106731;1278;22757;-79
2023/09/05 09:34:38;;;;;;;5.90;3.80;;;;;;;22.22;71.98;98974.61;107103;1277;22528;-79
2023/09/05 09:37:07;;;;;;;5.70;3.30;;;;;;;22.29;71.04;98973.15;107040;1277;22653;-80
2023/09/05 09:39:35;;;;;;;3.60;3.00;;;;;;;22.37;69.81;98978.95;107072;1278;22649;-78
2023/09/05 09:42:03;;;;;;;6.70;3.20;;;;;;;22.43;68.41;98977.48;107112;1277;23154;-78
2023/09/05 09:44:34;;;;;;;4.60;3.40;;;;;;;22.50;68.20;98974.35;106870;1278;22741;-78
2023/09/05 09:47:02;;;;;;;5.70;3.40;;;;;;;22.53;67.41;98974.74;107115;1265;24272;-79
2023/09/05 09:49:31;;;;;;;6.10;3.50;;;;;;;22.59;68.10;98974.45;107100;1277;25288;-79
2023/09/05 09:52:04;;;;;;;4.10;3.10;;;;;;;22.68;66.94;98972.86;107078;1277;22669;-79
2023/09/05 09:54:37;;;;;;;5.10;3.20;;;;;;;22.76;66.04;98975.89;107089;1277;25575;-79
2023/09/05 09:57:09;;;;;;;6.00;3.50;;;;;;;22.81;66.27;98969.97;106960;1278;24050;-77
2023/09/05 09:59:45;;;;;;;4.80;3.40;;;;;;;22.92;65.46;98967.05;106736;1277;25312;-78
2023/09/05 10:02:15;;;;;;;5.90;3.10;;;;;;;22.90;63.24;98963.94;107100;1278;23908;-79
2023/09/05 10:04:44;;;;;;;6.90;3.10;;;;;;;22.91;64.90;98962.92;106896;1277;22612;-79
2023/09/05 10:07:16;;;;;;;3.60;2.90;;;;;;;22.94;63.89;98961.83;107067;1278;22586;-78
2023/09/05 10:09:47;;;;;;;6.00;3.10;;;;;;;23.00;63.89;98959.89;107141;1277;22573;-78
2023/09/05 10:12:18;;;;;;;4.50;3.30;;;;;;;23.14;63.27;98960.54;106761;1278;22629;-79
2023/09/05 10:14:49;;;;;;;3.80;3.10;;;;;;;23.23;62.43;98957.14;107192;1278;24359;-80
2023/09/05 10:17:19;;;;;;;5.10;3.10;;;;;;;23.26;62.30;98951.08;106902;1278;22534;-79
2023/09/05 10:19:50;;;;;;;4.00;3.10;;;;;;;23.27;61.86;98951.09;107196;1278;22636;-79
2023/09/05 10:22:18;;;;;;;3.70;2.90;;;;;;;23.40;62.01;98950.52;107201;1278;22576;-78
2023/09/05 10:24:48;;;;;;;5.20;3.20;;;;;;;23.48;60.30;98950.08;107152;1278;25405;-78
2023/09/05 10:27:16;;;;;;;7.40;3.30;;;;;;;23.54;60.15;98949.90;107078;1278;25255;-78
2023/09/05 10:29:46;;;;;;;3.80;3.10;;;;;;;23.61;58.37;98949.02;106777;1272;24238;-79
2023/09/05 10:32:19;;;;;;;4.70;2.80;;;;;;;23.65;58.07;98942.59;106811;1277;22518;-79
2023/09/05 10:34:47;;;;;;;5.20;3.30;;;;;;;23.76;58.24;98938.84;107222;1278;25233;-80
2023/09/05 10:37:19;;;;;;;5.90;3.60;;;;;;;23.88;58.51;98937.12;107087;1277;23016;-79
2023/09/05 10:39:48;;;;;;;4.40;3.00;;;;;;;23.94;56.84;98930.48;107127;1277;22520;-79
2023/09/05 10:42:16;;;;;;;4.80;3.10;;;;;;;23.96;57.13;98928.64;107099;1278;22551;-79
2023/09/05 10:44:46;;;;;;;7.60;3.20;;;;;;;24.10;57.11;98928.60;107033;1278;24423;-79
2023/09/05 10:48:07;;;;;;;5.60;3.40;;;;;;;24.21;57.18;98925.35;107117;1278;23138;-79
2023/09/05 10:51:07;;;;;;;6.60;3.30;;;;;;;24.20;54.87;98923.13;107046;1278;24235;-78
2023/09/05 10:53:37;;;;;;;9.10;3.40;;;;;;;24.13;53.76;98923.14;107134;1278;22541;-79
2023/09/05 10:56:06;;;;;;;4.60;3.20;;;;;;;24.11;54.20;98921.46;107203;1277;25361;-79
2023/09/05 10:58:53;;;;;;;5.50;2.90;;;;;;;24.19;53.65;98915.46;107084;1278;22653;-79
2023/09/05 11:01:31;;;;;;;5.30;2.80;;;;;;;24.29;53.78;98915.88;106580;1277;24240;-78
2023/09/05 11:04:07;;;;;;;4.80;3.20;;;;;;;24.37;53.26;98912.48;107137;1277;25298;-78
2023/09/05 11:06:37;;;;;;;4.40;2.80;;;;;;;24.38;51.72;98907.41;106899;1278;22542;-78
2023/09/05 11:09:06;;;;;;;5.60;2.80;;;;;;;24.37;51.86;98905.09;106767;1278;25399;-79
2023/09/05 11:11:42;;;;;;;5.90;3.00;;;;;;;24.44;52.35;98904.55;106978;1277;22564;-80
2023/09/05 11:14:11;;;;;;;5.00;3.60;;;;;;;24.56;52.62;98898.22;107287;1278;22527;-81
2023/09/05 11:16:47;;;;;;;4.90;3.20;;;;;;;24.73;52.25;98893.48;106878;1278;22543;-80
2023/09/05 11:19:52;;;;;;;6.20;3.70;;;;;;;24.83;50.67;98891.73;107147;1278;24266;-79
2023/09/05 11:22:23;;;;;;;5.70;3.40;;;;;;;24.87;49.75;98889.67;106120;1286;22624;-79
2023/09/05 11:24:56;;;;;;;5.10;3.30;;;;;;;24.84;50.63;98890.17;106416;1286;22578;-79
2023/09/05 11:27:32;;;;;;;4.00;3.00;;;;;;;24.92;49.89;98891.24;106299;1286;22596;-79
2023/09/05 11:30:04;;;;;;;6.50;3.40;;;;;;;24.98;50.29;98891.17;106353;1286;22653;-79
2023/09/05 11:32:35;;;;;;;5.60;3.40;;;;;;;25.12;50.23;98889.60;106552;1286;22540;-80